Time;durP1;ratioP1;P1;durP2;ratioP2;P2;SDS_P1;SDS_P2;PMS_P1;PMS_P2;Temp;Humidity;BMP_temperature;BMP_pressure;BME280_temperature;BME280_humidity;BME280_pressure;Samples;Min_cycle;Max_cycle;Signal;HPM_P1;HPM_P2
2023/01/22 00:00:23;;;;;;;11.45;5.85;;;1.10;99.90;;;;;;5129921;27;20039;-82
2023/01/22 00:02:49;;;;;;;11.90;5.15;;;0.60;99.90;;;;;;5077564;27;20403;-83
2023/01/22 00:05:15;;;;;;;8.30;5.05;;;0.60;99.90;;;;;;5111150;27;20043;-82
2023/01/22 00:07:41;;;;;;;9.15;5.47;;;0.60;99.90;;;;;;5130319;27;20232;-83
2023/01/22 00:10:07;;;;;;;12.05;6.22;;;0.60;99.90;;;;;;5128796;27;20495;-82
2023/01/22 00:12:34;;;;;;;13.93;6.57;;;0.60;99.90;;;;;;5111865;27;20130;-83
2023/01/22 00:14:59;;;;;;;10.57;6.20;;;0.60;99.90;;;;;;5111283;27;20461;-83
2023/01/22 00:17:25;;;;;;;13.68;6.72;;;1.40;99.90;;;;;;5129446;27;20083;-83
2023/01/22 00:19:51;;;;;;;12.13;6.78;;;0.50;99.90;;;;;;5111497;27;20501;-83
2023/01/22 00:22:16;;;;;;;13.95;7.45;;;0.50;99.90;;;;;;5093351;27;20107;-83
2023/01/22 00:24:42;;;;;;;13.80;6.88;;;0.50;99.90;;;;;;5111431;27;20050;-83
2023/01/22 00:27:08;;;;;;;16.33;8.70;;;0.50;99.90;;;;;;5093082;27;20047;-83
2023/01/22 00:29:34;;;;;;;12.95;7.65;;;0.50;99.90;;;;;;5110770;27;20047;-83
2023/01/22 00:31:59;;;;;;;14.38;8.05;;;0.40;99.90;;;;;;5093506;27;20038;-83
2023/01/22 00:34:25;;;;;;;13.77;7.78;;;0.40;99.90;;;;;;5110483;27;20092;-83
2023/01/22 00:36:51;;;;;;;14.45;8.60;;;0.40;99.90;;;;;;5129500;27;20132;-83
2023/01/22 00:39:17;;;;;;;15.25;7.97;;;0.30;99.90;;;;;;5110072;27;20050;-83
2023/01/22 00:41:42;;;;;;;15.45;8.13;;;0.30;99.90;;;;;;5128970;27;20042;-83
2023/01/22 00:44:08;;;;;;;17.05;8.35;;;0.30;99.90;;;;;;5093681;27;20039;-83
2023/01/22 00:46:34;;;;;;;15.73;7.75;;;0.30;99.90;;;;;;5110965;27;20047;-83
2023/01/22 00:49:02;;;;;;;18.42;8.48;;;0.30;99.90;;;;;;5128803;27;20039;-84
2023/01/22 00:51:29;;;;;;;15.75;8.80;;;1.40;99.90;;;;;;5093977;27;20055;-84
2023/01/22 00:53:55;;;;;;;13.38;8.57;;;0.30;99.90;;;;;;5129170;27;20075;-84
2023/01/22 00:56:21;;;;;;;18.45;8.95;;;0.40;99.90;;;;;;5128472;27;20108;-84
2023/01/22 00:58:46;;;;;;;13.82;7.80;;;0.40;99.90;;;;;;5110561;27;20108;-83
2023/01/22 01:01:14;;;;;;;15.65;8.43;;;0.40;99.90;;;;;;5128162;27;20054;-84
2023/01/22 01:03:40;;;;;;;16.38;9.18;;;0.40;99.90;;;;;;5129034;27;20043;-83
2023/01/22 01:06:07;;;;;;;19.48;9.30;;;0.50;99.90;;;;;;5092822;27;20497;-83
2023/01/22 01:08:36;;;;;;;15.18;8.90;;;0.50;99.90;;;;;;5109594;27;20043;-84
2023/01/22 01:11:05;;;;;;;14.05;8.52;;;0.40;99.90;;;;;;5109855;27;20126;-83
2023/01/22 01:13:37;;;;;;;19.63;9.57;;;0.40;99.90;;;;;;5109829;27;20043;-83
2023/01/22 01:16:05;;;;;;;17.95;9.18;;;0.40;99.90;;;;;;5094213;27;20099;-83
2023/01/22 01:18:31;;;;;;;15.82;8.35;;;0.40;99.90;;;;;;5111522;27;20095;-83
2023/01/22 01:20:58;;;;;;;16.67;8.48;;;0.40;99.90;;;;;;5103087;27;20046;-83
2023/01/22 01:23:25;;;;;;;16.27;9.10;;;0.40;99.90;;;;;;5138867;27;20043;-83
2023/01/22 01:25:51;;;;;;;22.13;9.45;;;0.40;99.90;;;;;;5119629;27;20043;-83
2023/01/22 01:28:17;;;;;;;16.38;8.35;;;0.40;99.90;;;;;;5113196;27;20039;-83
2023/01/22 01:30:44;;;;;;;18.58;8.65;;;0.40;99.90;;;;;;5128110;27;20039;-83
2023/01/22 01:33:10;;;;;;;16.08;9.38;;;0.40;99.90;;;;;;5110124;27;20059;-83
2023/01/22 01:35:36;;;;;;;15.38;9.35;;;0.40;99.90;;;;;;5127313;27;20043;-82
2023/01/22 01:38:02;;;;;;;19.15;9.65;;;0.40;99.90;;;;;;5093096;27;20454;-83
2023/01/22 01:40:27;;;;;;;15.00;9.65;;;0.40;99.90;;;;;;5127607;27;20126;-83
2023/01/22 01:42:53;;;;;;;15.50;9.50;;;0.40;99.90;;;;;;5128091;27;20047;-83
2023/01/22 01:45:25;;;;;;;14.25;8.85;;;0.40;99.90;;;;;;5092665;27;20039;-83
2023/01/22 01:48:09;;;;;;;18.85;9.05;;;0.40;99.90;;;;;;5127155;27;20530;-84
2023/01/22 01:50:37;;;;;;;19.10;9.63;;;0.40;99.90;;;;;;5109986;27;20039;-84
2023/01/22 01:53:03;;;;;;;19.85;9.48;;;-0.40;99.90;;;;;;5091432;27;20126;-84
2023/01/22 01:55:32;;;;;;;16.02;9.30;;;0.40;99.90;;;;;;5127982;27;20160;-84
2023/01/22 01:58:03;;;;;;;16.90;8.88;;;1.70;99.90;;;;;;5109470;27;20409;-84
2023/01/22 02:00:33;;;;;;;16.48;9.55;;;0.40;99.90;;;;;;5091825;27;20051;-84
2023/01/22 02:03:00;;;;;;;17.13;10.05;;;0.40;99.90;;;;;;5109436;27;20276;-83
2023/01/22 02:05:29;;;;;;;15.15;9.32;;;0.40;99.90;;;;;;5108682;27;20044;-83
2023/01/22 02:07:55;;;;;;;22.02;10.10;;;0.30;99.90;;;;;;5109935;27;20086;-83
2023/01/22 02:10:21;;;;;;;17.85;10.13;;;0.30;99.90;;;;;;5126695;27;20142;-83
2023/01/22 02:12:47;;;;;;;15.30;8.20;;;0.30;99.90;;;;;;5109073;27;20206;-83
2023/01/22 02:15:13;;;;;;;15.55;8.60;;;0.30;99.90;;;;;;5109090;27;20099;-83
2023/01/22 02:17:39;;;;;;;16.30;9.85;;;0.40;99.90;;;;;;5108489;27;20035;-83
2023/01/22 02:20:05;;;;;;;15.73;9.40;;;1.70;99.90;;;;;;5127599;27;20445;-83
2023/01/22 02:22:34;;;;;;;17.38;9.15;;;0.40;99.90;;;;;;5126567;27;20047;-83
2023/01/22 02:25:00;;;;;;;21.23;8.63;;;0.40;99.90;;;;;;5108964;27;20051;-83
2023/01/22 02:27:26;;;;;;;14.68;9.15;;;0.50;99.90;;;;;;5108420;27;20039;-83
2023/01/22 02:29:52;;;;;;;17.80;9.70;;;0.50;99.90;;;;;;5091643;27;20050;-83
2023/01/22 02:32:18;;;;;;;18.10;9.00;;;0.50;99.90;;;;;;5108354;27;20126;-83
2023/01/22 02:34:44;;;;;;;15.95;8.88;;;0.50;99.90;;;;;;5108107;27;20047;-82
2023/01/22 02:37:09;;;;;;;12.57;8.00;;;0.50;99.90;;;;;;5108692;27;20061;-82
2023/01/22 02:39:35;;;;;;;14.05;7.60;;;0.60;99.90;;;;;;5107977;27;20043;-82
2023/01/22 02:42:04;;;;;;;12.70;8.02;;;0.60;99.90;;;;;;5091946;27;20217;-82
2023/01/22 02:44:29;;;;;;;16.80;8.30;;;0.60;99.90;;;;;;5107501;27;20043;-82
2023/01/22 02:46:55;;;;;;;15.10;8.20;;;1.20;99.90;;;;;;5108158;27;20062;-82
2023/01/22 02:49:21;;;;;;;12.90;7.60;;;0.60;99.90;;;;;;5126478;27;20183;-82
2023/01/22 02:51:46;;;;;;;16.17;7.53;;;0.60;99.90;;;;;;5073758;27;20043;-81
2023/01/22 02:54:12;;;;;;;11.65;7.50;;;0.60;99.90;;;;;;5108386;27;20457;-81
2023/01/22 02:56:38;;;;;;;13.00;7.07;;;0.60;99.90;;;;;;5107304;27;20077;-82
2023/01/22 02:59:04;;;;;;;14.15;6.05;;;0.60;99.90;;;;;;5108339;27;20043;-82
2023/01/22 03:01:30;;;;;;;10.80;5.68;;;0.60;99.90;;;;;;5107718;27;20057;-82
2023/01/22 03:03:58;;;;;;;12.55;5.13;;;0.60;99.90;;;;;;5091121;27;20039;-82
2023/01/22 03:06:26;;;;;;;8.85;5.40;;;0.60;99.90;;;;;;5126320;27;20397;-82
2023/01/22 03:08:59;;;;;;;13.77;5.43;;;0.60;99.90;;;;;;5126054;27;20039;-82
2023/01/22 03:11:27;;;;;;;10.73;5.00;;;0.60;99.90;;;;;;5126944;27;20366;-82
2023/01/22 03:22:08;;;;;;;11.43;3.88;;;0.70;99.90;;;;;;5107047;28;20081;-82
2023/01/22 03:24:34;;;;;;;9.82;3.75;;;1.10;99.90;;;;;;5107964;28;20042;-82
2023/01/22 03:27:01;;;;;;;7.00;3.25;;;0.70;99.90;;;;;;5056796;28;20039;-82
2023/01/22 03:29:27;;;;;;;6.50;3.70;;;1.60;99.90;;;;;;5107919;28;20119;-82
2023/01/22 03:31:53;;;;;;;6.93;3.30;;;0.70;99.90;;;;;;5109404;27;20039;-82
2023/01/22 03:34:20;;;;;;;6.80;3.47;;;0.80;99.90;;;;;;5111836;27;20039;-82
2023/01/22 03:36:47;;;;;;;10.98;4.15;;;0.80;99.90;;;;;;5112303;27;20043;-82
2023/01/22 03:39:12;;;;;;;10.05;3.33;;;0.80;99.90;;;;;;5111456;27;20497;-82
2023/01/22 03:41:39;;;;;;;9.50;4.05;;;0.80;99.90;;;;;;5094786;27;20039;-83
2023/01/22 03:44:05;;;;;;;8.00;3.67;;;0.90;99.90;;;;;;5111030;27;20047;-82
2023/01/22 03:46:31;;;;;;;7.15;3.90;;;0.90;99.90;;;;;;5111694;27;20039;-82
2023/01/22 03:48:57;;;;;;;11.70;4.22;;;0.90;99.90;;;;;;5111440;27;20047;-82
2023/01/22 03:51:23;;;;;;;5.57;3.88;;;0.90;99.90;;;;;;5111391;27;20050;-82
2023/01/22 03:53:49;;;;;;;8.45;3.58;;;1.20;99.90;;;;;;5094430;27;20107;-83
2023/01/22 03:56:17;;;;;;;6.75;3.05;;;0.90;99.90;;;;;;5129933;27;20050;-82
2023/01/22 03:58:43;;;;;;;8.55;3.50;;;2.10;99.90;;;;;;5130318;27;20035;-83
2023/01/22 04:01:12;;;;;;;5.72;3.00;;;1.00;99.90;;;;;;5110740;27;20084;-82
2023/01/22 04:03:38;;;;;;;5.00;3.28;;;1.00;99.90;;;;;;5112094;27;20058;-83
2023/01/22 04:06:05;;;;;;;8.82;2.85;;;1.00;99.90;;;;;;5129395;27;20406;-83
2023/01/22 04:08:32;;;;;;;11.60;4.35;;;1.00;99.90;;;;;;5129879;27;20042;-83
2023/01/22 04:10:59;;;;;;;7.32;3.55;;;1.10;99.90;;;;;;5111164;27;20058;-83
2023/01/22 04:13:27;;;;;;;5.38;3.00;;;1.10;99.90;;;;;;5129194;27;20224;-83
2023/01/22 04:15:53;;;;;;;5.80;2.95;;;1.10;99.90;;;;;;5094294;27;20045;-83
2023/01/22 04:18:19;;;;;;;7.45;4.00;;;1.10;99.90;;;;;;5110696;27;20043;-83
2023/01/22 04:20:46;;;;;;;5.80;2.90;;;1.10;99.90;;;;;;5129965;27;20043;-83
2023/01/22 04:23:12;;;;;;;6.28;3.28;;;1.10;99.90;;;;;;5129597;27;20398;-82
2023/01/22 04:25:37;;;;;;;6.85;3.45;;;1.30;99.90;;;;;;5129823;27;20050;-83
2023/01/22 04:28:03;;;;;;;5.70;3.70;;;1.10;99.90;;;;;;5130270;27;20569;-83
2023/01/22 04:30:30;;;;;;;5.82;3.50;;;1.10;99.90;;;;;;5129496;27;20149;-83
2023/01/22 04:32:56;;;;;;;5.68;3.50;;;1.20;99.90;;;;;;5130673;27;20065;-83
2023/01/22 04:35:22;;;;;;;7.80;3.92;;;1.20;99.90;;;;;;5111086;27;20040;-83
2023/01/22 04:37:47;;;;;;;8.30;3.55;;;1.20;99.90;;;;;;5132782;27;20061;-83
2023/01/22 04:40:13;;;;;;;8.85;3.22;;;1.30;99.90;;;;;;5119630;27;20134;-82
2023/01/22 04:42:39;;;;;;;11.00;3.70;;;1.30;99.90;;;;;;5118106;28;20043;-82
2023/01/22 04:45:05;;;;;;;7.15;3.45;;;1.30;99.90;;;;;;5116764;27;20061;-81
2023/01/22 04:47:31;;;;;;;5.35;3.25;;;1.30;99.90;;;;;;5112894;27;20054;-82
2023/01/22 04:49:57;;;;;;;6.47;3.10;;;1.30;99.90;;;;;;5111021;27;20043;-82
2023/01/22 04:52:22;;;;;;;5.28;3.22;;;1.30;99.90;;;;;;5109915;27;20065;-82
2023/01/22 04:54:50;;;;;;;6.60;3.80;;;1.70;99.90;;;;;;5129231;27;20050;-82
2023/01/22 04:57:16;;;;;;;8.20;3.55;;;1.30;99.90;;;;;;5109897;27;20039;-81
2023/01/22 04:59:42;;;;;;;9.45;3.50;;;1.40;99.90;;;;;;5076464;27;20402;-82
2023/01/22 05:02:08;;;;;;;8.10;3.58;;;1.30;99.90;;;;;;5128530;27;20058;-82
2023/01/22 05:04:33;;;;;;;9.35;3.65;;;1.40;99.90;;;;;;5109482;27;20051;-82
2023/01/22 05:06:59;;;;;;;5.80;3.58;;;1.40;99.90;;;;;;5128945;27;20068;-82
2023/01/22 05:09:25;;;;;;;6.50;3.30;;;1.40;99.90;;;;;;5108877;27;20096;-82
2023/01/22 05:11:51;;;;;;;9.27;3.80;;;2.30;99.90;;;;;;5128533;27;20053;-82
2023/01/22 05:14:17;;;;;;;6.03;3.67;;;1.40;99.90;;;;;;5127561;27;20047;-82
2023/01/22 05:16:43;;;;;;;7.68;2.70;;;1.40;99.90;;;;;;5128574;27;20043;-82
2023/01/22 05:19:08;;;;;;;7.72;2.88;;;1.40;99.90;;;;;;5109888;27;20043;-82
2023/01/22 05:21:34;;;;;;;8.43;3.30;;;2.20;99.90;;;;;;5109451;27;20131;-81
2023/01/22 05:24:00;;;;;;;6.13;2.80;;;1.40;99.90;;;;;;5076647;27;20031;-82
2023/01/22 05:26:25;;;;;;;6.97;3.55;;;1.40;99.90;;;;;;5127573;27;20088;-82
2023/01/22 05:28:51;;;;;;;6.85;3.38;;;2.20;99.90;;;;;;5128585;27;20043;-82
2023/01/22 05:31:17;;;;;;;4.35;2.30;;;1.40;99.90;;;;;;5109228;27;20039;-82
2023/01/22 05:33:43;;;;;;;7.00;3.25;;;1.40;99.90;;;;;;5109619;27;20036;-82
2023/01/22 05:36:11;;;;;;;8.60;3.05;;;2.60;99.90;;;;;;5092326;27;20047;-82
2023/01/22 05:38:37;;;;;;;7.88;3.20;;;1.40;99.90;;;;;;5109534;27;20089;-82
2023/01/22 05:41:03;;;;;;;6.88;3.30;;;2.40;99.90;;;;;;5110019;27;20475;-82
2023/01/22 05:43:29;;;;;;;6.95;3.17;;;1.50;99.90;;;;;;5127055;27;20074;-82
2023/01/22 05:45:59;;;;;;;4.78;3.25;;;1.50;99.90;;;;;;5127964;27;20436;-82
2023/01/22 05:48:25;;;;;;;5.63;2.88;;;1.50;99.90;;;;;;5127380;27;20027;-81
2023/01/22 05:50:51;;;;;;;4.53;3.17;;;1.50;99.90;;;;;;5128212;27;20605;-81
2023/01/22 05:53:16;;;;;;;8.05;3.28;;;2.10;99.90;;;;;;5127287;27;20043;-82
2023/01/22 05:55:42;;;;;;;8.40;3.42;;;1.40;99.90;;;;;;5127091;27;20042;-82
2023/01/22 05:58:08;;;;;;;7.32;2.85;;;2.50;99.90;;;;;;5127747;27;20137;-83
2023/01/22 06:00:33;;;;;;;5.15;2.75;;;1.50;99.90;;;;;;5091062;27;20039;-83
2023/01/22 06:03:00;;;;;;;6.40;3.22;;;1.40;99.90;;;;;;5108969;27;20047;-82
2023/01/22 06:05:26;;;;;;;9.48;2.90;;;1.40;99.90;;;;;;5091586;27;20417;-83
2023/01/22 06:07:52;;;;;;;4.07;2.55;;;1.40;99.90;;;;;;5108939;27;20047;-82
2023/01/22 06:10:18;;;;;;;7.72;3.03;;;1.40;99.90;;;;;;5108286;27;20459;-82
2023/01/22 06:12:44;;;;;;;5.28;2.35;;;1.40;99.90;;;;;;5127515;27;20066;-82
2023/01/22 06:15:10;;;;;;;3.15;2.25;;;1.40;99.90;;;;;;5127492;27;20039;-82
2023/01/22 06:17:37;;;;;;;5.55;2.67;;;1.40;99.90;;;;;;5126736;27;20035;-82
2023/01/22 06:20:04;;;;;;;3.97;2.63;;;1.40;99.90;;;;;;5127443;27;20043;-82
2023/01/22 06:22:30;;;;;;;5.00;2.65;;;1.40;99.90;;;;;;5107925;27;20050;-81
2023/01/22 06:24:56;;;;;;;6.53;2.83;;;1.40;99.90;;;;;;5128032;27;20039;-83
2023/01/22 06:27:22;;;;;;;8.20;2.88;;;1.40;99.90;;;;;;5108085;27;20047;-83
2023/01/22 06:29:50;;;;;;;6.22;2.88;;;1.40;99.90;;;;;;5127179;27;20371;-83
2023/01/22 06:32:16;;;;;;;7.25;3.20;;;1.30;99.90;;;;;;5127188;27;20035;-83
2023/01/22 06:34:42;;;;;;;6.22;3.50;;;1.60;99.90;;;;;;5126474;27;20039;-82
2023/01/22 06:37:08;;;;;;;7.32;3.38;;;1.30;99.90;;;;;;5127177;27;20141;-82
2023/01/22 06:39:33;;;;;;;9.18;2.72;;;2.30;99.90;;;;;;5126145;27;20076;-83
2023/01/22 06:41:59;;;;;;;4.20;3.00;;;1.30;99.90;;;;;;5127403;27;20043;-83
2023/01/22 06:44:25;;;;;;;5.85;3.28;;;1.30;99.90;;;;;;5107853;27;20043;-82
2023/01/22 06:46:50;;;;;;;4.97;3.50;;;1.40;99.90;;;;;;5108236;27;20551;-81
2023/01/22 06:49:16;;;;;;;11.20;3.78;;;1.30;99.90;;;;;;5108458;27;20591;-82
2023/01/22 06:51:42;;;;;;;7.22;3.55;;;1.30;99.90;;;;;;5073767;27;20093;-81
2023/01/22 06:54:10;;;;;;;4.28;3.13;;;1.70;99.90;;;;;;5126434;27;20043;-82
2023/01/22 06:56:36;;;;;;;9.73;4.75;;;1.90;99.90;;;;;;5126007;27;20051;-82
2023/01/22 06:59:02;;;;;;;11.13;4.07;;;1.20;99.90;;;;;;5127051;27;20047;-82
2023/01/22 07:01:27;;;;;;;8.27;4.07;;;1.90;99.90;;;;;;5107231;27;20502;-82
2023/01/22 07:03:53;;;;;;;5.85;3.55;;;1.90;99.90;;;;;;5091153;27;20043;-82
2023/01/22 07:06:19;;;;;;;8.15;4.10;;;1.20;99.90;;;;;;5125846;27;20039;-82
2023/01/22 07:08:45;;;;;;;7.43;3.47;;;1.20;99.90;;;;;;5107139;27;20118;-82
2023/01/22 07:11:10;;;;;;;7.55;4.35;;;1.20;99.90;;;;;;5126195;27;20402;-82
2023/01/22 07:13:36;;;;;;;5.93;4.20;;;1.20;99.90;;;;;;5125633;27;20513;-83
2023/01/22 07:16:03;;;;;;;5.68;3.70;;;1.20;99.90;;;;;;5108270;27;20124;-82
2023/01/22 07:18:29;;;;;;;5.63;4.30;;;1.20;99.90;;;;;;5107387;27;20097;-83
2023/01/22 07:21:02;;;;;;;5.00;4.30;;;1.20;99.90;;;;;;5107973;28;20092;-83
2023/01/22 07:23:28;;;;;;;6.30;4.18;;;1.20;99.90;;;;;;5126539;28;20051;-83
2023/01/22 07:25:54;;;;;;;5.97;3.85;;;1.10;99.90;;;;;;5126041;28;20035;-85
2023/01/22 07:28:20;;;;;;;8.88;4.07;;;1.10;99.90;;;;;;5126441;28;20397;-85
2023/01/22 07:30:45;;;;;;;7.80;4.05;;;1.10;99.90;;;;;;5073050;28;20051;-84
2023/01/22 07:33:12;;;;;;;5.30;3.92;;;1.10;99.90;;;;;;5090992;28;20054;-83
2023/01/22 07:35:38;;;;;;;6.57;4.38;;;2.30;99.90;;;;;;5125532;27;20109;-83
2023/01/22 07:38:04;;;;;;;8.50;4.32;;;1.10;99.90;;;;;;5107940;28;20478;-83
2023/01/22 07:40:30;;;;;;;6.93;4.32;;;1.10;99.90;;;;;;5073256;28;20046;-84
2023/01/22 07:42:56;;;;;;;10.90;4.70;;;1.10;99.90;;;;;;5073106;28;20067;-84
2023/01/22 07:45:23;;;;;;;6.68;4.43;;;1.10;99.90;;;;;;5107425;28;20126;-84
2023/01/22 07:47:53;;;;;;;7.72;4.45;;;1.10;99.90;;;;;;5106237;28;20434;-83
2023/01/22 07:50:24;;;;;;;6.70;4.32;;;2.20;99.90;;;;;;5090671;28;20035;-83
2023/01/22 07:52:49;;;;;;;8.98;4.25;;;1.10;99.90;;;;;;5089728;28;20398;-82
2023/01/22 07:55:15;;;;;;;6.05;4.57;;;1.00;99.90;;;;;;5107902;28;20039;-84
2023/01/22 07:57:41;;;;;;;12.57;6.72;;;1.00;99.90;;;;;;5106849;28;20501;-82
2023/01/22 08:00:11;;;;;;;8.85;4.72;;;1.10;99.90;;;;;;5092612;28;20924;-84
2023/01/22 08:02:38;;;;;;;12.23;5.28;;;1.00;99.90;;;;;;5078760;28;20036;-83
2023/01/22 08:05:04;;;;;;;9.65;5.13;;;1.00;99.90;;;;;;5107884;28;20055;-83
2023/01/22 08:07:30;;;;;;;6.93;4.88;;;1.00;99.90;;;;;;5108249;28;20086;-82
2023/01/22 08:09:56;;;;;;;6.43;4.53;;;1.00;99.90;;;;;;5106714;28;20471;-82
2023/01/22 08:12:22;;;;;;;7.47;5.25;;;1.00;99.90;;;;;;5090580;28;20079;-82
2023/01/22 08:14:48;;;;;;;7.28;4.82;;;1.00;99.90;;;;;;5106776;28;20055;-84
2023/01/22 08:17:13;;;;;;;7.75;4.10;;;1.00;99.90;;;;;;5090149;27;20035;-81
2023/01/22 08:19:39;;;;;;;8.88;4.13;;;1.00;99.90;;;;;;5110774;27;20055;-81
2023/01/22 08:22:08;;;;;;;6.25;4.28;;;1.00;99.90;;;;;;5109678;27;20131;-81
2023/01/22 08:24:33;;;;;;;5.88;4.22;;;1.00;99.90;;;;;;5129625;27;20050;-82
2023/01/22 08:27:00;;;;;;;6.65;4.35;;;1.00;99.90;;;;;;5128424;27;20073;-83
2023/01/22 08:29:25;;;;;;;6.25;3.78;;;0.90;99.90;;;;;;5111099;27;20126;-81
2023/01/22 08:31:52;;;;;;;6.03;4.07;;;1.00;99.90;;;;;;5093941;27;20122;-82
2023/01/22 08:34:18;;;;;;;8.20;4.20;;;1.00;99.90;;;;;;5093229;27;20084;-82
2023/01/22 08:36:44;;;;;;;10.25;4.40;;;0.90;99.90;;;;;;5110892;27;20588;-81
2023/01/22 08:39:12;;;;;;;6.75;3.83;;;0.90;99.90;;;;;;5128169;27;20126;-81
2023/01/22 08:41:38;;;;;;;6.55;3.97;;;0.90;99.90;;;;;;5110231;27;20051;-83
2023/01/22 08:44:04;;;;;;;6.80;3.90;;;0.90;99.90;;;;;;5092429;27;20047;-78
2023/01/22 08:46:30;;;;;;;7.80;4.80;;;0.90;99.90;;;;;;5110864;27;20042;-79
2023/01/22 08:48:56;;;;;;;7.63;4.30;;;0.90;99.90;;;;;;5128534;27;20035;-79
2023/01/22 08:51:23;;;;;;;6.60;4.07;;;1.00;99.90;;;;;;5092866;27;20453;-79
2023/01/22 08:53:50;;;;;;;5.90;3.92;;;1.00;99.90;;;;;;5128729;27;20072;-79
2023/01/22 08:56:15;;;;;;;8.60;4.07;;;0.90;99.90;;;;;;5109429;27;20393;-79
2023/01/22 08:58:41;;;;;;;6.13;4.40;;;1.00;99.90;;;;;;5110350;27;20123;-79
2023/01/22 09:01:12;;;;;;;4.88;3.70;;;0.60;99.90;;;;;;5127767;27;20118;-79
2023/01/22 09:03:38;;;;;;;6.50;3.95;;;1.00;99.90;;;;;;5110149;27;20101;-80
2023/01/22 09:06:04;;;;;;;7.07;4.57;;;1.00;99.90;;;;;;5127835;27;20475;-79
2023/01/22 09:08:30;;;;;;;8.30;4.00;;;1.00;99.90;;;;;;5109075;27;20046;-79
2023/01/22 09:10:56;;;;;;;7.65;4.18;;;1.00;99.90;;;;;;5109682;27;20374;-79
2023/01/22 09:13:21;;;;;;;11.80;4.32;;;1.00;99.90;;;;;;5075268;27;20387;-79
2023/01/22 09:15:47;;;;;;;9.65;4.72;;;1.00;99.90;;;;;;5128103;27;20038;-79
2023/01/22 09:18:13;;;;;;;7.35;4.25;;;1.10;99.90;;;;;;5092122;27;20146;-79
2023/01/22 09:20:38;;;;;;;9.23;3.83;;;1.10;99.90;;;;;;5128358;27;20050;-79
2023/01/22 09:23:04;;;;;;;11.70;5.07;;;1.20;99.90;;;;;;5127473;27;20042;-79
2023/01/22 09:25:30;;;;;;;8.38;4.47;;;1.30;99.90;;;;;;5109382;27;20050;-79
2023/01/22 09:28:00;;;;;;;7.80;4.47;;;1.30;99.90;;;;;;5128099;27;20470;-79
2023/01/22 09:30:27;;;;;;;5.20;4.07;;;1.30;99.90;;;;;;5126917;27;20586;-79
2023/01/22 09:32:55;;;;;;;5.60;4.25;;;1.40;99.90;;;;;;5109975;27;20159;-79
2023/01/22 09:35:21;;;;;;;14.13;4.50;;;1.40;99.90;;;;;;5108219;27;20517;-80
2023/01/22 09:37:47;;;;;;;10.25;4.13;;;1.40;99.90;;;;;;5109423;27;20047;-79
2023/01/22 09:40:24;;;;;;;5.93;4.22;;;1.50;99.90;;;;;;5091534;27;20054;-79
2023/01/22 09:42:53;;;;;;;4.60;3.33;;;1.60;99.90;;;;;;5127158;27;20051;-80
2023/01/22 09:45:24;;;;;;;7.95;4.53;;;1.60;99.90;;;;;;5109164;27;20119;-79
2023/01/22 09:47:53;;;;;;;7.07;4.32;;;1.60;99.90;;;;;;5127056;27;20046;-79
2023/01/22 09:50:29;;;;;;;8.02;4.10;;;1.70;99.90;;;;;;5109799;27;20044;-81
2023/01/22 09:52:57;;;;;;;6.18;4.60;;;1.70;99.90;;;;;;5127040;27;20039;-79
2023/01/22 09:55:28;;;;;;;6.78;4.20;;;1.70;99.90;;;;;;5127199;27;20082;-79
2023/01/22 09:57:58;;;;;;;5.78;4.22;;;1.80;99.90;;;;;;5127772;27;20070;-80
2023/01/22 10:00:36;;;;;;;8.95;4.55;;;1.80;99.90;;;;;;5107985;27;20498;-80
2023/01/22 10:03:09;;;;;;;8.48;4.07;;;1.80;99.90;;;;;;5108869;27;20047;-80
2023/01/22 10:05:38;;;;;;;8.10;4.28;;;1.80;99.90;;;;;;5107735;27;20096;-80
2023/01/22 10:08:19;;;;;;;8.40;4.55;;;1.90;99.90;;;;;;5109169;27;20387;-80
2023/01/22 10:10:45;;;;;;;9.68;5.00;;;1.90;99.90;;;;;;5108834;27;20421;-80
2023/01/22 10:13:14;;;;;;;6.88;3.75;;;2.00;99.90;;;;;;5107674;27;20047;-80
2023/01/22 10:15:40;;;;;;;6.28;3.75;;;2.00;99.90;;;;;;5108630;27;20051;-80
2023/01/22 10:18:36;;;;;;;9.57;4.00;;;1.90;99.90;;;;;;5107459;27;20039;-80
2023/01/22 10:21:09;;;;;;;8.30;4.32;;;2.00;99.90;;;;;;5108587;27;20117;-81
2023/01/22 10:23:35;;;;;;;5.43;3.80;;;2.10;99.90;;;;;;5108805;27;20066;-80
2023/01/22 10:26:14;;;;;;;5.70;3.50;;;2.10;99.90;;;;;;5090797;27;20533;-80
2023/01/22 10:28:46;;;;;;;6.00;3.53;;;2.10;99.90;;;;;;5108389;27;20047;-82
2023/01/22 10:31:35;;;;;;;7.60;3.95;;;2.10;99.90;;;;;;5107141;27;20057;-80
2023/01/22 10:34:15;;;;;;;6.93;4.80;;;2.10;99.90;;;;;;5107648;27;20046;-81
2023/01/22 10:36:51;;;;;;;5.15;3.78;;;2.10;99.90;;;;;;5108892;27;20054;-82
2023/01/22 10:39:18;;;;;;;6.32;3.40;;;2.20;99.90;;;;;;5107253;27;20512;-83
2023/01/22 10:41:45;;;;;;;6.32;3.33;;;3.00;99.90;;;;;;5091442;27;20047;-82
2023/01/22 10:44:24;;;;;;;5.38;3.72;;;2.30;99.90;;;;;;5125399;27;20079;-82
2023/01/22 10:46:52;;;;;;;6.43;3.20;;;2.40;99.90;;;;;;5126113;27;20055;-82
2023/01/22 10:49:23;;;;;;;5.72;2.97;;;3.20;99.90;;;;;;5108071;27;20073;-82
2023/01/22 10:52:03;;;;;;;6.90;3.25;;;2.40;99.90;;;;;;5106828;27;20046;-82
2023/01/22 10:54:38;;;;;;;11.25;4.22;;;2.40;99.90;;;;;;5108130;27;20095;-82
2023/01/22 10:57:24;;;;;;;6.30;3.50;;;2.50;99.90;;;;;;5125839;27;20046;-82
2023/01/22 11:00:00;;;;;;;5.85;3.75;;;2.60;99.90;;;;;;5126271;27;20453;-80
2023/01/22 11:02:26;;;;;;;6.50;3.90;;;2.60;99.90;;;;;;5107697;27;20054;-81
2023/01/22 11:05:12;;;;;;;5.65;3.65;;;3.40;99.90;;;;;;5124972;27;20047;-80
2023/01/22 11:07:38;;;;;;;4.05;3.45;;;2.60;99.90;;;;;;5126658;27;20425;-81
2023/01/22 11:10:17;;;;;;;8.73;3.88;;;2.60;99.90;;;;;;5125212;27;20035;-81
2023/01/22 11:12:48;;;;;;;8.43;3.83;;;2.60;99.90;;;;;;5089749;27;20058;-81
2023/01/22 11:15:26;;;;;;;7.72;3.80;;;2.70;99.90;;;;;;5091188;28;20410;-81
2023/01/22 11:17:56;;;;;;;4.78;3.50;;;2.70;99.90;;;;;;5125100;27;20092;-81
2023/01/22 11:20:45;;;;;;;8.73;3.83;;;2.70;99.90;;;;;;5126518;27;20167;-81
2023/01/22 11:23:32;;;;;;;6.32;4.07;;;3.70;99.90;;;;;;5124598;27;20058;-81
2023/01/22 11:26:11;;;;;;;6.57;3.17;;;2.80;99.90;;;;;;5125382;28;20585;-81
2023/01/22 11:28:50;;;;;;;5.90;3.15;;;3.10;99.90;;;;;;5126150;28;20118;-81
2023/01/22 11:31:39;;;;;;;12.30;4.10;;;2.80;99.90;;;;;;5106559;28;20043;-81
2023/01/22 11:34:40;;;;;;;7.60;3.88;;;2.80;99.90;;;;;;5090297;28;20036;-81
2023/01/22 11:37:32;;;;;;;5.90;3.33;;;2.80;99.90;;;;;;5125937;28;20122;-80
2023/01/22 11:40:01;;;;;;;6.05;3.55;;;2.90;99.90;;;;;;5105919;28;20475;-80
2023/01/22 11:42:36;;;;;;;6.72;3.72;;;2.90;99.90;;;;;;5106938;28;20499;-80
2023/01/22 11:45:29;;;;;;;7.55;4.00;;;3.00;99.90;;;;;;5090183;28;20138;-80
2023/01/22 11:48:06;;;;;;;4.25;3.13;;;3.00;99.90;;;;;;5106078;28;20039;-80
2023/01/22 11:50:57;;;;;;;6.45;3.45;;;3.10;99.90;;;;;;5125988;28;20130;-80
2023/01/22 11:53:26;;;;;;;5.78;2.92;;;3.10;99.90;;;;;;5109825;27;20062;-81
2023/01/22 11:56:18;;;;;;;5.18;3.25;;;3.10;99.90;;;;;;5110094;27;20051;-81
2023/01/22 11:59:05;;;;;;;5.60;3.33;;;3.10;99.90;;;;;;5129664;27;20263;-81
2023/01/22 12:02:05;;;;;;;8.68;3.40;;;3.20;99.90;;;;;;5128801;27;20058;-82
2023/01/22 12:04:53;;;;;;;7.75;3.33;;;3.30;99.90;;;;;;5109954;27;20043;-82
2023/01/22 12:07:25;;;;;;;6.18;3.17;;;3.30;99.90;;;;;;5111237;27;20078;-82
2023/01/22 12:10:35;;;;;;;6.03;3.42;;;3.30;99.90;;;;;;5128278;27;20039;-82
2023/01/22 12:13:22;;;;;;;7.18;3.60;;;3.40;99.90;;;;;;5092929;27;20134;-81
2023/01/22 12:16:10;;;;;;;9.77;3.05;;;3.40;99.90;;;;;;5111399;27;20047;-82
2023/01/22 12:18:58;;;;;;;6.63;3.88;;;4.00;99.90;;;;;;5109667;27;20050;-82
2023/01/22 12:21:42;;;;;;;5.18;3.53;;;3.50;99.90;;;;;;5110372;27;20086;-82
2023/01/22 12:24:25;;;;;;;8.57;3.40;;;3.50;99.90;;;;;;5094279;27;20212;-82
2023/01/22 12:27:01;;;;;;;7.95;3.70;;;3.50;99.90;;;;;;5109211;27;20524;-82
2023/01/22 12:29:39;;;;;;;7.55;3.25;;;3.40;99.90;;;;;;5110913;27;20095;-81
2023/01/22 12:32:11;;;;;;;10.18;4.18;;;3.40;99.90;;;;;;5093170;27;20039;-80
2023/01/22 12:34:55;;;;;;;5.28;3.05;;;3.40;99.90;;;;;;5109507;27;20083;-83
2023/01/22 12:37:25;;;;;;;11.40;3.10;;;3.40;99.90;;;;;;5110772;27;20047;-81
2023/01/22 12:40:12;;;;;;;5.55;3.17;;;3.40;99.90;;;;;;5109562;27;20069;-81
2023/01/22 12:42:42;;;;;;;7.28;3.00;;;3.40;99.90;;;;;;5128440;27;20054;-81
2023/01/22 12:45:44;;;;;;;8.60;3.70;;;3.40;99.90;;;;;;5093115;27;20062;-81
2023/01/22 12:48:45;;;;;;;4.22;3.03;;;3.40;99.90;;;;;;5109644;27;20072;-81
2023/01/22 12:51:34;;;;;;;15.95;4.82;;;3.30;99.90;;;;;;5128586;27;20060;-81
2023/01/22 12:54:29;;;;;;;11.65;4.15;;;3.30;99.90;;;;;;5128899;27;20043;-81
2023/01/22 12:57:15;;;;;;;5.70;2.97;;;3.20;99.90;;;;;;5109215;27;20055;-81
2023/01/22 12:59:45;;;;;;;8.10;3.63;;;3.30;99.90;;;;;;5109602;27;20043;-81
2023/01/22 13:02:37;;;;;;;9.32;3.45;;;3.20;99.90;;;;;;5127934;27;20050;-81
2023/01/22 13:05:35;;;;;;;7.32;3.80;;;3.20;99.90;;;;;;5126336;27;20379;-81
2023/01/22 13:08:34;;;;;;;7.13;3.58;;;3.20;99.90;;;;;;5110238;27;20120;-81
2023/01/22 13:11:03;;;;;;;9.82;4.00;;;3.20;99.90;;;;;;5121441;27;20062;-82
2023/01/22 13:13:31;;;;;;;5.28;3.15;;;3.30;99.90;;;;;;5127361;27;20552;-81